sensor_id;sensor_type;location;lat;lon;timestamp;P1;durP1;ratioP1;P2;durP2;ratioP2
42590;SDS011;28218;53.342;-6.216;2023-11-19T00:01:17;17.20;;;3.65;;
42590;SDS011;28218;53.342;-6.216;2023-11-19T00:03:46;21.08;;;3.72;;
42590;SDS011;28218;53.342;-6.216;2023-11-19T00:06:17;32.50;;;3.65;;
42590;SDS011;28218;53.342;-6.216;2023-11-19T00:08:45;22.88;;;5.07;;
42590;SDS011;28218;53.342;-6.216;2023-11-19T00:11:16;28.63;;;4.10;;
42590;SDS011;28218;53.342;-6.216;2023-11-19T00:13:45;16.48;;;3.78;;
42590;SDS011;28218;53.342;-6.216;2023-11-19T00:16:13;22.30;;;4.90;;
42590;SDS011;28218;53.342;-6.216;2023-11-19T00:18:43;18.98;;;3.75;;
42590;SDS011;28218;53.342;-6.216;2023-11-19T00:21:11;22.10;;;4.15;;
42590;SDS011;28218;53.342;-6.216;2023-11-19T00:23:39;21.80;;;4.63;;
42590;SDS011;28218;53.342;-6.216;2023-11-19T00:26:07;21.50;;;3.90;;
42590;SDS011;28218;53.342;-6.216;2023-11-19T00:28:36;20.55;;;3.58;;
42590;SDS011;28218;53.342;-6.216;2023-11-19T00:31:06;24.85;;;4.85;;
42590;SDS011;28218;53.342;-6.216;2023-11-19T00:33:34;19.13;;;3.15;;
42590;SDS011;28218;53.342;-6.216;2023-11-19T00:36:15;20.92;;;3.33;;
42590;SDS011;28218;53.342;-6.216;2023-11-19T00:38:43;21.85;;;3.60;;
42590;SDS011;28218;53.342;-6.216;2023-11-19T00:41:14;19.13;;;3.33;;
42590;SDS011;28218;53.342;-6.216;2023-11-19T00:43:43;23.40;;;3.45;;
42590;SDS011;28218;53.342;-6.216;2023-11-19T00:46:13;18.17;;;4.32;;
42590;SDS011;28218;53.342;-6.216;2023-11-19T00:48:41;17.15;;;3.55;;
42590;SDS011;28218;53.342;-6.216;2023-11-19T00:51:11;25.83;;;4.05;;
42590;SDS011;28218;53.342;-6.216;2023-11-19T00:53:40;33.17;;;4.17;;
42590;SDS011;28218;53.342;-6.216;2023-11-19T00:56:10;22.30;;;3.60;;
42590;SDS011;28218;53.342;-6.216;2023-11-19T00:58:39;21.45;;;4.03;;
42590;SDS011;28218;53.342;-6.216;2023-11-19T01:01:07;15.18;;;3.10;;
42590;SDS011;28218;53.342;-6.216;2023-11-19T01:03:37;19.58;;;3.25;;
42590;SDS011;28218;53.342;-6.216;2023-11-19T01:06:06;20.88;;;4.25;;
42590;SDS011;28218;53.342;-6.216;2023-11-19T01:08:35;22.92;;;5.25;;
42590;SDS011;28218;53.342;-6.216;2023-11-19T01:11:03;19.90;;;3.60;;
42590;SDS011;28218;53.342;-6.216;2023-11-19T01:13:32;18.48;;;3.92;;
42590;SDS011;28218;53.342;-6.216;2023-11-19T01:16:00;20.15;;;3.90;;
42590;SDS011;28218;53.342;-6.216;2023-11-19T01:18:29;21.77;;;3.53;;
42590;SDS011;28218;53.342;-6.216;2023-11-19T01:20:58;17.00;;;3.70;;
42590;SDS011;28218;53.342;-6.216;2023-11-19T01:23:26;16.95;;;2.70;;
42590;SDS011;28218;53.342;-6.216;2023-11-19T01:25:54;17.92;;;3.15;;
42590;SDS011;28218;53.342;-6.216;2023-11-19T01:28:22;19.48;;;2.88;;
42590;SDS011;28218;53.342;-6.216;2023-11-19T01:30:51;19.25;;;2.83;;
42590;SDS011;28218;53.342;-6.216;2023-11-19T01:33:19;17.50;;;2.75;;
42590;SDS011;28218;53.342;-6.216;2023-11-19T01:35:47;16.40;;;2.45;;
42590;SDS011;28218;53.342;-6.216;2023-11-19T01:38:17;11.38;;;2.80;;
42590;SDS011;28218;53.342;-6.216;2023-11-19T01:40:45;18.85;;;3.08;;
42590;SDS011;28218;53.342;-6.216;2023-11-19T01:46:00;15.63;;;4.60;;
42590;SDS011;28218;53.342;-6.216;2023-11-19T01:48:30;19.40;;;4.85;;
42590;SDS011;28218;53.342;-6.216;2023-11-19T01:51:00;12.35;;;2.95;;
42590;SDS011;28218;53.342;-6.216;2023-11-19T01:53:30;13.60;;;3.03;;
42590;SDS011;28218;53.342;-6.216;2023-11-19T01:56:00;11.75;;;2.75;;
42590;SDS011;28218;53.342;-6.216;2023-11-19T01:58:29;17.33;;;3.13;;
42590;SDS011;28218;53.342;-6.216;2023-11-19T02:00:58;14.15;;;3.05;;
42590;SDS011;28218;53.342;-6.216;2023-11-19T02:03:26;12.48;;;3.38;;
42590;SDS011;28218;53.342;-6.216;2023-11-19T02:05:56;17.50;;;2.90;;
42590;SDS011;28218;53.342;-6.216;2023-11-19T02:08:24;19.35;;;3.03;;
42590;SDS011;28218;53.342;-6.216;2023-11-19T02:10:54;18.10;;;3.90;;
42590;SDS011;28218;53.342;-6.216;2023-11-19T02:13:23;15.60;;;2.85;;
42590;SDS011;28218;53.342;-6.216;2023-11-19T02:15:52;18.55;;;2.47;;
42590;SDS011;28218;53.342;-6.216;2023-11-19T02:18:22;19.23;;;2.63;;
42590;SDS011;28218;53.342;-6.216;2023-11-19T02:20:54;11.95;;;2.90;;
42590;SDS011;28218;53.342;-6.216;2023-11-19T02:23:23;14.95;;;2.50;;
42590;SDS011;28218;53.342;-6.216;2023-11-19T02:25:58;12.40;;;2.70;;
42590;SDS011;28218;53.342;-6.216;2023-11-19T02:28:34;11.68;;;2.42;;
42590;SDS011;28218;53.342;-6.216;2023-11-19T02:31:04;15.10;;;2.45;;
42590;SDS011;28218;53.342;-6.216;2023-11-19T02:33:36;16.60;;;2.85;;
42590;SDS011;28218;53.342;-6.216;2023-11-19T02:36:05;14.75;;;4.13;;
42590;SDS011;28218;53.342;-6.216;2023-11-19T02:38:35;15.68;;;2.53;;
42590;SDS011;28218;53.342;-6.216;2023-11-19T02:41:03;16.00;;;2.63;;
42590;SDS011;28218;53.342;-6.216;2023-11-19T02:43:34;13.27;;;2.63;;
42590;SDS011;28218;53.342;-6.216;2023-11-19T02:46:05;17.33;;;3.15;;
42590;SDS011;28218;53.342;-6.216;2023-11-19T02:48:36;17.95;;;3.47;;
42590;SDS011;28218;53.342;-6.216;2023-11-19T02:51:05;18.30;;;3.08;;
42590;SDS011;28218;53.342;-6.216;2023-11-19T02:53:36;17.88;;;3.28;;
42590;SDS011;28218;53.342;-6.216;2023-11-19T02:56:07;15.07;;;3.88;;
42590;SDS011;28218;53.342;-6.216;2023-11-19T02:58:44;15.13;;;2.60;;
42590;SDS011;28218;53.342;-6.216;2023-11-19T03:01:12;14.15;;;3.03;;
42590;SDS011;28218;53.342;-6.216;2023-11-19T03:03:50;12.35;;;3.45;;
42590;SDS011;28218;53.342;-6.216;2023-11-19T03:08:49;15.52;;;3.20;;
42590;SDS011;28218;53.342;-6.216;2023-11-19T03:11:17;15.75;;;3.33;;
42590;SDS011;28218;53.342;-6.216;2023-11-19T03:13:47;19.13;;;3.38;;
42590;SDS011;28218;53.342;-6.216;2023-11-19T03:16:15;13.90;;;3.13;;
42590;SDS011;28218;53.342;-6.216;2023-11-19T03:18:44;13.15;;;2.47;;
42590;SDS011;28218;53.342;-6.216;2023-11-19T03:21:12;20.27;;;3.70;;
42590;SDS011;28218;53.342;-6.216;2023-11-19T03:23:40;11.68;;;2.20;;
42590;SDS011;28218;53.342;-6.216;2023-11-19T03:26:10;19.10;;;2.60;;
42590;SDS011;28218;53.342;-6.216;2023-11-19T03:28:38;10.60;;;2.85;;
42590;SDS011;28218;53.342;-6.216;2023-11-19T03:31:08;13.38;;;2.53;;
42590;SDS011;28218;53.342;-6.216;2023-11-19T03:33:36;9.75;;;2.35;;
42590;SDS011;28218;53.342;-6.216;2023-11-19T03:36:05;19.38;;;3.20;;
42590;SDS011;28218;53.342;-6.216;2023-11-19T03:38:33;16.20;;;2.42;;
42590;SDS011;28218;53.342;-6.216;2023-11-19T03:41:02;17.08;;;4.20;;
42590;SDS011;28218;53.342;-6.216;2023-11-19T03:43:38;18.48;;;2.75;;
42590;SDS011;28218;53.342;-6.216;2023-11-19T03:46:16;16.42;;;2.47;;
42590;SDS011;28218;53.342;-6.216;2023-11-19T03:48:46;14.20;;;3.25;;
42590;SDS011;28218;53.342;-6.216;2023-11-19T03:51:14;10.27;;;2.00;;
42590;SDS011;28218;53.342;-6.216;2023-11-19T03:53:43;13.35;;;2.47;;
42590;SDS011;28218;53.342;-6.216;2023-11-19T03:56:11;11.95;;;2.15;;
42590;SDS011;28218;53.342;-6.216;2023-11-19T03:58:40;11.65;;;2.35;;
42590;SDS011;28218;53.342;-6.216;2023-11-19T04:01:10;13.82;;;2.20;;
42590;SDS011;28218;53.342;-6.216;2023-11-19T04:03:42;5.55;;;1.73;;
42590;SDS011;28218;53.342;-6.216;2023-11-19T04:06:13;8.65;;;2.33;;
42590;SDS011;28218;53.342;-6.216;2023-11-19T04:08:41;15.35;;;2.45;;
42590;SDS011;28218;53.342;-6.216;2023-11-19T04:11:10;12.23;;;2.38;;
42590;SDS011;28218;53.342;-6.216;2023-11-19T04:13:38;19.55;;;2.25;;
42590;SDS011;28218;53.342;-6.216;2023-11-19T04:16:06;9.93;;;1.88;;
42590;SDS011;28218;53.342;-6.216;2023-11-19T04:18:35;14.43;;;2.42;;
42590;SDS011;28218;53.342;-6.216;2023-11-19T04:21:07;14.85;;;2.40;;
42590;SDS011;28218;53.342;-6.216;2023-11-19T04:23:35;16.95;;;2.22;;
42590;SDS011;28218;53.342;-6.216;2023-11-19T04:26:03;13.90;;;2.15;;
42590;SDS011;28218;53.342;-6.216;2023-11-19T04:28:36;14.05;;;2.75;;
42590;SDS011;28218;53.342;-6.216;2023-11-19T04:31:04;21.80;;;2.67;;
42590;SDS011;28218;53.342;-6.216;2023-11-19T04:33:32;13.05;;;3.08;;
42590;SDS011;28218;53.342;-6.216;2023-11-19T04:36:01;10.40;;;2.22;;
42590;SDS011;28218;53.342;-6.216;2023-11-19T04:38:31;13.25;;;1.85;;
42590;SDS011;28218;53.342;-6.216;2023-11-19T04:40:59;18.85;;;2.38;;
42590;SDS011;28218;53.342;-6.216;2023-11-19T04:43:28;13.30;;;2.05;;
42590;SDS011;28218;53.342;-6.216;2023-11-19T04:45:56;12.40;;;2.17;;
42590;SDS011;28218;53.342;-6.216;2023-11-19T04:48:24;9.82;;;1.70;;
42590;SDS011;28218;53.342;-6.216;2023-11-19T04:50:52;10.15;;;1.85;;
42590;SDS011;28218;53.342;-6.216;2023-11-19T04:53:21;12.52;;;2.08;;
42590;SDS011;28218;53.342;-6.216;2023-11-19T04:55:50;9.88;;;1.88;;
42590;SDS011;28218;53.342;-6.216;2023-11-19T04:58:18;9.25;;;1.63;;
42590;SDS011;28218;53.342;-6.216;2023-11-19T05:00:47;7.05;;;1.63;;
42590;SDS011;28218;53.342;-6.216;2023-11-19T05:03:15;6.53;;;1.60;;
42590;SDS011;28218;53.342;-6.216;2023-11-19T05:05:44;5.80;;;1.25;;
42590;SDS011;28218;53.342;-6.216;2023-11-19T05:08:12;13.27;;;1.75;;
42590;SDS011;28218;53.342;-6.216;2023-11-19T05:10:41;13.52;;;2.28;;
42590;SDS011;28218;53.342;-6.216;2023-11-19T05:13:10;15.10;;;1.77;;
42590;SDS011;28218;53.342;-6.216;2023-11-19T05:15:39;13.07;;;2.30;;
42590;SDS011;28218;53.342;-6.216;2023-11-19T05:18:07;10.20;;;1.70;;
42590;SDS011;28218;53.342;-6.216;2023-11-19T05:20:35;10.10;;;1.40;;
42590;SDS011;28218;53.342;-6.216;2023-11-19T05:23:03;8.23;;;1.88;;
42590;SDS011;28218;53.342;-6.216;2023-11-19T05:25:31;9.27;;;1.63;;
42590;SDS011;28218;53.342;-6.216;2023-11-19T05:28:00;7.70;;;2.60;;
42590;SDS011;28218;53.342;-6.216;2023-11-19T05:30:29;13.13;;;1.65;;
42590;SDS011;28218;53.342;-6.216;2023-11-19T05:32:58;10.60;;;2.35;;
42590;SDS011;28218;53.342;-6.216;2023-11-19T05:35:27;12.10;;;1.65;;
42590;SDS011;28218;53.342;-6.216;2023-11-19T05:37:55;11.20;;;1.70;;
42590;SDS011;28218;53.342;-6.216;2023-11-19T05:40:23;8.63;;;1.77;;
42590;SDS011;28218;53.342;-6.216;2023-11-19T05:42:51;7.13;;;1.58;;
42590;SDS011;28218;53.342;-6.216;2023-11-19T05:45:19;11.02;;;2.78;;
42590;SDS011;28218;53.342;-6.216;2023-11-19T05:47:49;6.70;;;1.25;;
42590;SDS011;28218;53.342;-6.216;2023-11-19T05:50:19;10.17;;;1.80;;
42590;SDS011;28218;53.342;-6.216;2023-11-19T05:52:47;10.15;;;1.40;;
42590;SDS011;28218;53.342;-6.216;2023-11-19T05:55:15;7.85;;;1.20;;
42590;SDS011;28218;53.342;-6.216;2023-11-19T05:57:43;10.23;;;1.50;;
42590;SDS011;28218;53.342;-6.216;2023-11-19T06:00:13;7.70;;;1.25;;
42590;SDS011;28218;53.342;-6.216;2023-11-19T06:02:42;5.18;;;1.70;;
42590;SDS011;28218;53.342;-6.216;2023-11-19T06:05:12;5.05;;;0.93;;
42590;SDS011;28218;53.342;-6.216;2023-11-19T06:07:40;5.22;;;1.40;;
42590;SDS011;28218;53.342;-6.216;2023-11-19T06:10:08;5.80;;;1.40;;
42590;SDS011;28218;53.342;-6.216;2023-11-19T06:12:40;8.38;;;1.50;;
42590;SDS011;28218;53.342;-6.216;2023-11-19T06:15:09;5.85;;;1.10;;
42590;SDS011;28218;53.342;-6.216;2023-11-19T06:17:38;3.70;;;0.70;;
42590;SDS011;28218;53.342;-6.216;2023-11-19T06:20:07;8.60;;;1.63;;
42590;SDS011;28218;53.342;-6.216;2023-11-19T06:22:37;3.67;;;0.63;;
42590;SDS011;28218;53.342;-6.216;2023-11-19T06:25:05;1.63;;;0.68;;
42590;SDS011;28218;53.342;-6.216;2023-11-19T06:27:34;4.68;;;1.10;;
42590;SDS011;28218;53.342;-6.216;2023-11-19T06:30:03;4.03;;;1.23;;
42590;SDS011;28218;53.342;-6.216;2023-11-19T06:32:32;2.65;;;0.80;;
42590;SDS011;28218;53.342;-6.216;2023-11-19T06:35:00;2.40;;;0.60;;
42590;SDS011;28218;53.342;-6.216;2023-11-19T06:37:31;3.20;;;0.60;;
42590;SDS011;28218;53.342;-6.216;2023-11-19T06:40:00;4.65;;;0.60;;
42590;SDS011;28218;53.342;-6.216;2023-11-19T06:42:29;3.88;;;1.00;;
42590;SDS011;28218;53.342;-6.216;2023-11-19T06:44:57;4.72;;;0.90;;
42590;SDS011;28218;53.342;-6.216;2023-11-19T06:47:25;4.43;;;1.35;;
42590;SDS011;28218;53.342;-6.216;2023-11-19T06:49:54;10.02;;;2.08;;
42590;SDS011;28218;53.342;-6.216;2023-11-19T06:52:22;4.45;;;1.23;;
42590;SDS011;28218;53.342;-6.216;2023-11-19T06:54:51;5.00;;;1.15;;
42590;SDS011;28218;53.342;-6.216;2023-11-19T06:57:35;6.63;;;1.20;;
42590;SDS011;28218;53.342;-6.216;2023-11-19T07:00:03;5.05;;;1.15;;
42590;SDS011;28218;53.342;-6.216;2023-11-19T07:02:33;5.35;;;1.38;;
42590;SDS011;28218;53.342;-6.216;2023-11-19T07:05:01;8.13;;;1.95;;
42590;SDS011;28218;53.342;-6.216;2023-11-19T07:07:31;8.07;;;1.33;;
42590;SDS011;28218;53.342;-6.216;2023-11-19T07:10:00;6.32;;;1.38;;
42590;SDS011;28218;53.342;-6.216;2023-11-19T07:12:28;7.70;;;1.45;;
42590;SDS011;28218;53.342;-6.216;2023-11-19T07:14:58;8.35;;;2.08;;
42590;SDS011;28218;53.342;-6.216;2023-11-19T07:17:26;6.15;;;1.10;;
42590;SDS011;28218;53.342;-6.216;2023-11-19T07:19:55;4.10;;;1.00;;
42590;SDS011;28218;53.342;-6.216;2023-11-19T07:24:56;2.25;;;0.70;;
42590;SDS011;28218;53.342;-6.216;2023-11-19T07:27:25;3.55;;;0.95;;
42590;SDS011;28218;53.342;-6.216;2023-11-19T07:29:54;4.50;;;0.73;;
42590;SDS011;28218;53.342;-6.216;2023-11-19T07:32:24;3.58;;;0.68;;
42590;SDS011;28218;53.342;-6.216;2023-11-19T07:34:52;2.53;;;0.90;;
42590;SDS011;28218;53.342;-6.216;2023-11-19T07:37:20;2.95;;;0.77;;
42590;SDS011;28218;53.342;-6.216;2023-11-19T07:39:49;0.90;;;0.65;;
42590;SDS011;28218;53.342;-6.216;2023-11-19T07:42:17;4.25;;;0.80;;
42590;SDS011;28218;53.342;-6.216;2023-11-19T07:44:45;3.20;;;1.08;;
42590;SDS011;28218;53.342;-6.216;2023-11-19T07:47:13;2.33;;;0.65;;
42590;SDS011;28218;53.342;-6.216;2023-11-19T07:49:43;5.35;;;0.98;;
42590;SDS011;28218;53.342;-6.216;2023-11-19T07:52:11;2.88;;;0.80;;
42590;SDS011;28218;53.342;-6.216;2023-11-19T07:54:42;4.53;;;0.70;;
42590;SDS011;28218;53.342;-6.216;2023-11-19T07:57:10;3.40;;;0.57;;
42590;SDS011;28218;53.342;-6.216;2023-11-19T07:59:38;2.95;;;0.70;;
42590;SDS011;28218;53.342;-6.216;2023-11-19T08:02:07;1.75;;;0.85;;
42590;SDS011;28218;53.342;-6.216;2023-11-19T08:04:47;1.08;;;0.45;;
42590;SDS011;28218;53.342;-6.216;2023-11-19T08:07:18;4.20;;;1.20;;
42590;SDS011;28218;53.342;-6.216;2023-11-19T08:09:46;3.10;;;1.00;;
42590;SDS011;28218;53.342;-6.216;2023-11-19T08:12:15;5.20;;;0.98;;
42590;SDS011;28218;53.342;-6.216;2023-11-19T08:14:44;5.85;;;1.83;;
42590;SDS011;28218;53.342;-6.216;2023-11-19T08:17:12;2.25;;;0.70;;
42590;SDS011;28218;53.342;-6.216;2023-11-19T08:19:40;5.38;;;0.60;;
42590;SDS011;28218;53.342;-6.216;2023-11-19T08:22:10;5.45;;;0.73;;
42590;SDS011;28218;53.342;-6.216;2023-11-19T08:24:38;2.78;;;0.68;;
42590;SDS011;28218;53.342;-6.216;2023-11-19T08:27:06;5.55;;;0.73;;
42590;SDS011;28218;53.342;-6.216;2023-11-19T08:29:34;1.88;;;0.63;;
42590;SDS011;28218;53.342;-6.216;2023-11-19T08:32:02;4.65;;;0.70;;
42590;SDS011;28218;53.342;-6.216;2023-11-19T08:34:31;4.10;;;1.48;;
42590;SDS011;28218;53.342;-6.216;2023-11-19T08:36:59;1.20;;;0.80;;
42590;SDS011;28218;53.342;-6.216;2023-11-19T08:39:29;2.05;;;0.63;;
42590;SDS011;28218;53.342;-6.216;2023-11-19T08:41:58;0.73;;;0.55;;
42590;SDS011;28218;53.342;-6.216;2023-11-19T08:44:26;1.83;;;0.57;;
42590;SDS011;28218;53.342;-6.216;2023-11-19T08:46:54;2.40;;;0.80;;
42590;SDS011;28218;53.342;-6.216;2023-11-19T08:49:22;1.70;;;0.60;;
42590;SDS011;28218;53.342;-6.216;2023-11-19T08:51:50;2.10;;;0.63;;
42590;SDS011;28218;53.342;-6.216;2023-11-19T08:54:19;1.75;;;0.52;;
42590;SDS011;28218;53.342;-6.216;2023-11-19T08:56:50;1.55;;;0.60;;
42590;SDS011;28218;53.342;-6.216;2023-11-19T08:59:18;2.58;;;0.30;;
42590;SDS011;28218;53.342;-6.216;2023-11-19T09:01:47;0.40;;;0.40;;
42590;SDS011;28218;53.342;-6.216;2023-11-19T09:04:15;1.35;;;0.60;;
42590;SDS011;28218;53.342;-6.216;2023-11-19T09:06:44;1.45;;;0.30;;
42590;SDS011;28218;53.342;-6.216;2023-11-19T09:09:12;0.50;;;0.47;;
42590;SDS011;28218;53.342;-6.216;2023-11-19T09:11:40;0.30;;;0.30;;
42590;SDS011;28218;53.342;-6.216;2023-11-19T09:14:10;0.75;;;0.40;;
42590;SDS011;28218;53.342;-6.216;2023-11-19T09:16:38;2.65;;;0.30;;
42590;SDS011;28218;53.342;-6.216;2023-11-19T09:19:06;0.52;;;0.40;;
42590;SDS011;28218;53.342;-6.216;2023-11-19T09:21:35;1.58;;;0.30;;
42590;SDS011;28218;53.342;-6.216;2023-11-19T09:24:05;2.50;;;0.35;;
42590;SDS011;28218;53.342;-6.216;2023-11-19T09:26:34;3.33;;;0.68;;
42590;SDS011;28218;53.342;-6.216;2023-11-19T09:29:03;0.95;;;0.50;;
42590;SDS011;28218;53.342;-6.216;2023-11-19T09:31:32;0.30;;;0.30;;
42590;SDS011;28218;53.342;-6.216;2023-11-19T09:34:01;0.30;;;0.30;;
42590;SDS011;28218;53.342;-6.216;2023-11-19T09:36:29;0.22;;;0.22;;
42590;SDS011;28218;53.342;-6.216;2023-11-19T09:38:58;0.30;;;0.30;;
42590;SDS011;28218;53.342;-6.216;2023-11-19T09:41:27;0.52;;;0.50;;
42590;SDS011;28218;53.342;-6.216;2023-11-19T09:43:55;0.30;;;0.28;;
42590;SDS011;28218;53.342;-6.216;2023-11-19T09:46:24;1.15;;;0.20;;
42590;SDS011;28218;53.342;-6.216;2023-11-19T09:48:55;2.65;;;0.40;;
42590;SDS011;28218;53.342;-6.216;2023-11-19T09:51:26;0.22;;;0.20;;
42590;SDS011;28218;53.342;-6.216;2023-11-19T09:53:54;1.17;;;0.32;;
42590;SDS011;28218;53.342;-6.216;2023-11-19T09:56:22;0.32;;;0.30;;
42590;SDS011;28218;53.342;-6.216;2023-11-19T09:58:51;0.30;;;0.30;;
42590;SDS011;28218;53.342;-6.216;2023-11-19T10:01:19;2.03;;;0.60;;
42590;SDS011;28218;53.342;-6.216;2023-11-19T10:03:55;0.20;;;0.20;;
42590;SDS011;28218;53.342;-6.216;2023-11-19T10:06:24;1.02;;;0.40;;
42590;SDS011;28218;53.342;-6.216;2023-11-19T10:08:54;0.82;;;0.40;;
42590;SDS011;28218;53.342;-6.216;2023-11-19T10:11:23;0.50;;;0.38;;
42590;SDS011;28218;53.342;-6.216;2023-11-19T10:13:51;1.75;;;0.50;;
42590;SDS011;28218;53.342;-6.216;2023-11-19T10:16:22;1.88;;;0.95;;
42590;SDS011;28218;53.342;-6.216;2023-11-19T10:18:58;1.00;;;0.65;;
42590;SDS011;28218;53.342;-6.216;2023-11-19T10:21:26;0.30;;;0.30;;
42590;SDS011;28218;53.342;-6.216;2023-11-19T10:23:55;2.33;;;0.65;;
42590;SDS011;28218;53.342;-6.216;2023-11-19T10:26:27;3.00;;;0.93;;
42590;SDS011;28218;53.342;-6.216;2023-11-19T10:28:55;0.93;;;0.68;;
42590;SDS011;28218;53.342;-6.216;2023-11-19T10:31:24;3.10;;;0.60;;
42590;SDS011;28218;53.342;-6.216;2023-11-19T10:33:53;5.50;;;0.57;;
42590;SDS011;28218;53.342;-6.216;2023-11-19T10:36:23;1.00;;;0.75;;
42590;SDS011;28218;53.342;-6.216;2023-11-19T10:39:05;1.75;;;0.70;;
42590;SDS011;28218;53.342;-6.216;2023-11-19T10:41:33;3.65;;;1.38;;
42590;SDS011;28218;53.342;-6.216;2023-11-19T10:44:01;0.60;;;0.40;;
42590;SDS011;28218;53.342;-6.216;2023-11-19T10:46:36;0.40;;;0.40;;
42590;SDS011;28218;53.342;-6.216;2023-11-19T10:49:06;3.42;;;2.25;;
42590;SDS011;28218;53.342;-6.216;2023-11-19T10:51:36;3.03;;;0.80;;
42590;SDS011;28218;53.342;-6.216;2023-11-19T10:54:12;1.73;;;0.52;;
42590;SDS011;28218;53.342;-6.216;2023-11-19T10:56:43;3.43;;;0.90;;
42590;SDS011;28218;53.342;-6.216;2023-11-19T10:59:14;0.75;;;0.75;;
42590;SDS011;28218;53.342;-6.216;2023-11-19T11:01:48;1.55;;;0.57;;
42590;SDS011;28218;53.342;-6.216;2023-11-19T11:04:22;3.08;;;0.65;;
42590;SDS011;28218;53.342;-6.216;2023-11-19T11:09:22;4.57;;;0.70;;
42590;SDS011;28218;53.342;-6.216;2023-11-19T11:11:50;1.45;;;0.60;;
42590;SDS011;28218;53.342;-6.216;2023-11-19T11:14:19;0.63;;;0.63;;
42590;SDS011;28218;53.342;-6.216;2023-11-19T11:16:48;1.33;;;0.98;;
42590;SDS011;28218;53.342;-6.216;2023-11-19T11:19:18;2.00;;;1.17;;
42590;SDS011;28218;53.342;-6.216;2023-11-19T11:21:48;2.03;;;0.52;;
42590;SDS011;28218;53.342;-6.216;2023-11-19T11:27:30;1.75;;;0.65;;
42590;SDS011;28218;53.342;-6.216;2023-11-19T11:30:20;2.80;;;0.45;;
42590;SDS011;28218;53.342;-6.216;2023-11-19T11:33:01;1.08;;;0.70;;
42590;SDS011;28218;53.342;-6.216;2023-11-19T11:35:44;1.55;;;0.50;;
42590;SDS011;28218;53.342;-6.216;2023-11-19T11:38:21;1.08;;;0.75;;
42590;SDS011;28218;53.342;-6.216;2023-11-19T11:43:47;2.45;;;0.70;;
42590;SDS011;28218;53.342;-6.216;2023-11-19T11:49:27;0.40;;;0.40;;
42590;SDS011;28218;53.342;-6.216;2023-11-19T11:52:03;2.15;;;0.52;;
42590;SDS011;28218;53.342;-6.216;2023-11-19T11:54:32;1.17;;;0.50;;
42590;SDS011;28218;53.342;-6.216;2023-11-19T11:57:06;1.25;;;0.77;;
42590;SDS011;28218;53.342;-6.216;2023-11-19T11:59:48;1.08;;;0.88;;
42590;SDS011;28218;53.342;-6.216;2023-11-19T12:02:19;0.85;;;0.45;;
42590;SDS011;28218;53.342;-6.216;2023-11-19T12:04:49;0.50;;;0.50;;
42590;SDS011;28218;53.342;-6.216;2023-11-19T12:07:20;0.65;;;0.40;;
42590;SDS011;28218;53.342;-6.216;2023-11-19T12:09:51;0.98;;;0.60;;
42590;SDS011;28218;53.342;-6.216;2023-11-19T12:12:23;1.95;;;0.77;;
42590;SDS011;28218;53.342;-6.216;2023-11-19T12:15:03;0.63;;;0.47;;
42590;SDS011;28218;53.342;-6.216;2023-11-19T12:17:41;0.52;;;0.52;;
42590;SDS011;28218;53.342;-6.216;2023-11-19T12:20:20;1.88;;;0.57;;
42590;SDS011;28218;53.342;-6.216;2023-11-19T12:22:53;2.15;;;0.60;;
42590;SDS011;28218;53.342;-6.216;2023-11-19T12:25:21;1.85;;;0.57;;
42590;SDS011;28218;53.342;-6.216;2023-11-19T12:27:50;1.65;;;0.47;;
42590;SDS011;28218;53.342;-6.216;2023-11-19T12:30:23;0.50;;;0.50;;
42590;SDS011;28218;53.342;-6.216;2023-11-19T12:32:52;1.52;;;0.50;;
42590;SDS011;28218;53.342;-6.216;2023-11-19T12:35:21;1.73;;;0.63;;
42590;SDS011;28218;53.342;-6.216;2023-11-19T12:37:50;2.95;;;0.50;;
42590;SDS011;28218;53.342;-6.216;2023-11-19T12:40:22;4.15;;;0.95;;
42590;SDS011;28218;53.342;-6.216;2023-11-19T12:46:44;0.60;;;0.60;;
42590;SDS011;28218;53.342;-6.216;2023-11-19T12:49:12;2.75;;;0.77;;
42590;SDS011;28218;53.342;-6.216;2023-11-19T12:51:40;2.55;;;0.70;;
42590;SDS011;28218;53.342;-6.216;2023-11-19T12:54:08;1.40;;;0.68;;
42590;SDS011;28218;53.342;-6.216;2023-11-19T12:56:37;3.35;;;0.55;;
42590;SDS011;28218;53.342;-6.216;2023-11-19T12:59:11;1.25;;;0.82;;
42590;SDS011;28218;53.342;-6.216;2023-11-19T13:01:40;1.35;;;0.88;;
42590;SDS011;28218;53.342;-6.216;2023-11-19T13:04:17;2.58;;;1.17;;
42590;SDS011;28218;53.342;-6.216;2023-11-19T13:06:45;5.25;;;1.08;;
42590;SDS011;28218;53.342;-6.216;2023-11-19T13:09:30;1.98;;;1.00;;
42590;SDS011;28218;53.342;-6.216;2023-11-19T13:11:59;4.93;;;1.50;;
42590;SDS011;28218;53.342;-6.216;2023-11-19T13:14:39;4.28;;;1.35;;
42590;SDS011;28218;53.342;-6.216;2023-11-19T13:17:09;5.50;;;1.15;;
42590;SDS011;28218;53.342;-6.216;2023-11-19T13:19:42;12.38;;;2.35;;
42590;SDS011;28218;53.342;-6.216;2023-11-19T13:22:11;11.50;;;2.03;;
42590;SDS011;28218;53.342;-6.216;2023-11-19T13:24:39;13.98;;;1.80;;
42590;SDS011;28218;53.342;-6.216;2023-11-19T13:27:09;13.63;;;2.30;;
42590;SDS011;28218;53.342;-6.216;2023-11-19T13:29:37;15.57;;;2.15;;
42590;SDS011;28218;53.342;-6.216;2023-11-19T13:32:06;12.57;;;2.22;;
42590;SDS011;28218;53.342;-6.216;2023-11-19T13:34:34;13.77;;;2.28;;
42590;SDS011;28218;53.342;-6.216;2023-11-19T13:37:04;11.32;;;2.15;;
42590;SDS011;28218;53.342;-6.216;2023-11-19T13:39:32;11.48;;;2.25;;
42590;SDS011;28218;53.342;-6.216;2023-11-19T13:42:01;9.48;;;2.10;;
42590;SDS011;28218;53.342;-6.216;2023-11-19T13:44:32;13.68;;;2.08;;
42590;SDS011;28218;53.342;-6.216;2023-11-19T13:47:00;14.23;;;1.88;;
42590;SDS011;28218;53.342;-6.216;2023-11-19T13:49:30;17.65;;;2.75;;
42590;SDS011;28218;53.342;-6.216;2023-11-19T13:51:58;11.63;;;2.17;;
42590;SDS011;28218;53.342;-6.216;2023-11-19T13:54:27;15.75;;;2.88;;
42590;SDS011;28218;53.342;-6.216;2023-11-19T13:56:55;15.55;;;3.33;;
42590;SDS011;28218;53.342;-6.216;2023-11-19T13:59:24;14.82;;;3.05;;
42590;SDS011;28218;53.342;-6.216;2023-11-19T14:01:53;15.70;;;2.30;;
42590;SDS011;28218;53.342;-6.216;2023-11-19T14:04:21;24.63;;;3.05;;
42590;SDS011;28218;53.342;-6.216;2023-11-19T14:06:49;15.95;;;3.13;;
42590;SDS011;28218;53.342;-6.216;2023-11-19T14:09:18;12.50;;;2.28;;
42590;SDS011;28218;53.342;-6.216;2023-11-19T14:11:47;10.90;;;2.20;;
42590;SDS011;28218;53.342;-6.216;2023-11-19T14:16:45;13.18;;;2.10;;
42590;SDS011;28218;53.342;-6.216;2023-11-19T14:19:14;19.13;;;4.53;;
42590;SDS011;28218;53.342;-6.216;2023-11-19T14:21:42;26.48;;;11.07;;
42590;SDS011;28218;53.342;-6.216;2023-11-19T14:24:11;10.43;;;2.60;;
42590;SDS011;28218;53.342;-6.216;2023-11-19T14:26:40;17.17;;;7.38;;
42590;SDS011;28218;53.342;-6.216;2023-11-19T14:29:09;21.33;;;5.25;;
42590;SDS011;28218;53.342;-6.216;2023-11-19T14:31:37;17.00;;;6.95;;
42590;SDS011;28218;53.342;-6.216;2023-11-19T14:34:06;10.23;;;3.05;;
42590;SDS011;28218;53.342;-6.216;2023-11-19T14:36:34;13.98;;;3.78;;
42590;SDS011;28218;53.342;-6.216;2023-11-19T14:39:03;16.70;;;4.43;;
42590;SDS011;28218;53.342;-6.216;2023-11-19T14:41:31;15.20;;;5.60;;
42590;SDS011;28218;53.342;-6.216;2023-11-19T14:43:59;12.25;;;3.47;;
42590;SDS011;28218;53.342;-6.216;2023-11-19T14:46:29;40.28;;;20.42;;
42590;SDS011;28218;53.342;-6.216;2023-11-19T14:48:57;21.10;;;8.68;;
42590;SDS011;28218;53.342;-6.216;2023-11-19T14:51:25;12.98;;;3.28;;
42590;SDS011;28218;53.342;-6.216;2023-11-19T14:53:54;15.77;;;5.03;;
42590;SDS011;28218;53.342;-6.216;2023-11-19T14:56:22;19.02;;;6.80;;
42590;SDS011;28218;53.342;-6.216;2023-11-19T14:58:50;17.02;;;5.78;;
42590;SDS011;28218;53.342;-6.216;2023-11-19T15:01:18;24.75;;;10.00;;
42590;SDS011;28218;53.342;-6.216;2023-11-19T15:03:48;11.38;;;3.50;;
42590;SDS011;28218;53.342;-6.216;2023-11-19T15:06:23;19.83;;;5.45;;
42590;SDS011;28218;53.342;-6.216;2023-11-19T15:08:52;16.55;;;3.92;;